sensor_id;sensor_type;location;lat;lon;timestamp;temperature;humidity
77523;SHT31;66637;-29.628;-49.938;2023-05-14T00:00:58;17.16;74.43
77523;SHT31;66637;-29.628;-49.938;2023-05-14T00:03:29;17.15;74.33
77523;SHT31;66637;-29.628;-49.938;2023-05-14T00:06:00;17.14;74.52
77523;SHT31;66637;-29.628;-49.938;2023-05-14T00:08:31;17.12;74.63
77523;SHT31;66637;-29.628;-49.938;2023-05-14T00:11:01;17.02;74.64
77523;SHT31;66637;-29.628;-49.938;2023-05-14T00:13:32;16.98;75.09
77523;SHT31;66637;-29.628;-49.938;2023-05-14T00:16:02;16.92;75.10
77523;SHT31;66637;-29.628;-49.938;2023-05-14T00:18:33;16.89;75.10
77523;SHT31;66637;-29.628;-49.938;2023-05-14T00:21:04;16.91;75.32
77523;SHT31;66637;-29.628;-49.938;2023-05-14T00:23:34;16.94;74.92
77523;SHT31;66637;-29.628;-49.938;2023-05-14T00:26:06;16.85;75.65
77523;SHT31;66637;-29.628;-49.938;2023-05-14T00:28:38;16.78;76.05
77523;SHT31;66637;-29.628;-49.938;2023-05-14T00:31:09;16.78;76.10
77523;SHT31;66637;-29.628;-49.938;2023-05-14T00:33:39;16.77;76.24
77523;SHT31;66637;-29.628;-49.938;2023-05-14T00:36:11;16.78;76.22
77523;SHT31;66637;-29.628;-49.938;2023-05-14T00:38:42;16.72;76.13
77523;SHT31;66637;-29.628;-49.938;2023-05-14T00:41:14;16.75;76.34
77523;SHT31;66637;-29.628;-49.938;2023-05-14T00:43:44;16.72;76.03
77523;SHT31;66637;-29.628;-49.938;2023-05-14T00:46:15;16.71;76.16
77523;SHT31;66637;-29.628;-49.938;2023-05-14T00:48:46;16.61;76.55
77523;SHT31;66637;-29.628;-49.938;2023-05-14T00:51:17;16.59;76.82
77523;SHT31;66637;-29.628;-49.938;2023-05-14T00:53:49;16.50;76.78
77523;SHT31;66637;-29.628;-49.938;2023-05-14T00:56:20;16.44;76.76
77523;SHT31;66637;-29.628;-49.938;2023-05-14T00:58:51;16.37;76.97
77523;SHT31;66637;-29.628;-49.938;2023-05-14T01:01:22;16.37;77.03
77523;SHT31;66637;-29.628;-49.938;2023-05-14T01:03:53;16.37;77.18
77523;SHT31;66637;-29.628;-49.938;2023-05-14T01:17:32;16.24;76.74
77523;SHT31;66637;-29.628;-49.938;2023-05-14T01:20:04;16.10;76.22
77523;SHT31;66637;-29.628;-49.938;2023-05-14T01:22:36;16.08;76.15
77523;SHT31;66637;-29.628;-49.938;2023-05-14T01:25:07;16.08;75.95
77523;SHT31;66637;-29.628;-49.938;2023-05-14T01:30:35;15.96;75.66
77523;SHT31;66637;-29.628;-49.938;2023-05-14T01:33:12;15.92;75.58
77523;SHT31;66637;-29.628;-49.938;2023-05-14T01:35:47;15.92;75.49
77523;SHT31;66637;-29.628;-49.938;2023-05-14T01:38:19;15.85;75.44
77523;SHT31;66637;-29.628;-49.938;2023-05-14T01:40:52;15.82;75.44
77523;SHT31;66637;-29.628;-49.938;2023-05-14T01:43:23;15.79;75.32
77523;SHT31;66637;-29.628;-49.938;2023-05-14T01:45:53;15.81;75.40
77523;SHT31;66637;-29.628;-49.938;2023-05-14T01:48:25;15.76;75.32
77523;SHT31;66637;-29.628;-49.938;2023-05-14T01:50:56;15.75;74.99
77523;SHT31;66637;-29.628;-49.938;2023-05-14T01:53:27;15.76;75.41
77523;SHT31;66637;-29.628;-49.938;2023-05-14T01:55:58;15.76;75.38
77523;SHT31;66637;-29.628;-49.938;2023-05-14T01:58:30;15.76;75.72
77523;SHT31;66637;-29.628;-49.938;2023-05-14T02:01:00;15.76;75.69
77523;SHT31;66637;-29.628;-49.938;2023-05-14T02:03:31;15.75;75.84
77523;SHT31;66637;-29.628;-49.938;2023-05-14T02:06:01;15.72;75.80
77523;SHT31;66637;-29.628;-49.938;2023-05-14T02:08:31;15.75;76.13
77523;SHT31;66637;-29.628;-49.938;2023-05-14T02:11:01;15.70;76.32
77523;SHT31;66637;-29.628;-49.938;2023-05-14T02:13:35;15.72;75.99
77523;SHT31;66637;-29.628;-49.938;2023-05-14T02:16:05;15.63;76.07
77523;SHT31;66637;-29.628;-49.938;2023-05-14T02:18:35;15.66;76.20
77523;SHT31;66637;-29.628;-49.938;2023-05-14T02:21:05;15.59;75.92
77523;SHT31;66637;-29.628;-49.938;2023-05-14T02:23:36;15.55;76.09
77523;SHT31;66637;-29.628;-49.938;2023-05-14T02:26:09;15.58;76.13
77523;SHT31;66637;-29.628;-49.938;2023-05-14T02:28:41;15.56;76.03
77523;SHT31;66637;-29.628;-49.938;2023-05-14T02:31:13;15.56;75.83
77523;SHT31;66637;-29.628;-49.938;2023-05-14T02:33:44;15.55;75.56
77523;SHT31;66637;-29.628;-49.938;2023-05-14T02:36:14;15.54;75.53
77523;SHT31;66637;-29.628;-49.938;2023-05-14T02:38:44;15.58;75.33
77523;SHT31;66637;-29.628;-49.938;2023-05-14T02:41:15;15.54;75.11
77523;SHT31;66637;-29.628;-49.938;2023-05-14T02:43:47;15.52;75.06
77523;SHT31;66637;-29.628;-49.938;2023-05-14T02:46:19;15.48;75.24
77523;SHT31;66637;-29.628;-49.938;2023-05-14T02:48:51;15.44;75.28
77523;SHT31;66637;-29.628;-49.938;2023-05-14T02:51:22;15.47;75.27
77523;SHT31;66637;-29.628;-49.938;2023-05-14T02:53:53;15.32;75.13
77523;SHT31;66637;-29.628;-49.938;2023-05-14T02:56:25;15.34;75.43
77523;SHT31;66637;-29.628;-49.938;2023-05-14T02:58:55;15.30;75.86
77523;SHT31;66637;-29.628;-49.938;2023-05-14T03:01:27;15.27;75.78
77523;SHT31;66637;-29.628;-49.938;2023-05-14T03:03:58;15.24;75.58
77523;SHT31;66637;-29.628;-49.938;2023-05-14T03:06:28;15.21;75.62
77523;SHT31;66637;-29.628;-49.938;2023-05-14T03:08:59;15.20;75.54
77523;SHT31;66637;-29.628;-49.938;2023-05-14T03:11:29;15.18;75.60
77523;SHT31;66637;-29.628;-49.938;2023-05-14T03:14:00;15.18;75.87
77523;SHT31;66637;-29.628;-49.938;2023-05-14T03:16:34;15.14;75.91
77523;SHT31;66637;-29.628;-49.938;2023-05-14T03:19:04;15.10;75.90
77523;SHT31;66637;-29.628;-49.938;2023-05-14T03:21:36;15.08;76.06
77523;SHT31;66637;-29.628;-49.938;2023-05-14T03:24:07;15.08;75.90
77523;SHT31;66637;-29.628;-49.938;2023-05-14T03:26:37;15.04;75.97
77523;SHT31;66637;-29.628;-49.938;2023-05-14T03:29:07;15.04;75.94
77523;SHT31;66637;-29.628;-49.938;2023-05-14T03:31:40;14.94;75.99
77523;SHT31;66637;-29.628;-49.938;2023-05-14T03:34:11;14.88;76.18
77523;SHT31;66637;-29.628;-49.938;2023-05-14T03:36:43;14.95;75.75
77523;SHT31;66637;-29.628;-49.938;2023-05-14T03:39:13;14.98;75.44
77523;SHT31;66637;-29.628;-49.938;2023-05-14T03:41:49;15.01;74.94
77523;SHT31;66637;-29.628;-49.938;2023-05-14T03:44:21;15.05;74.85
77523;SHT31;66637;-29.628;-49.938;2023-05-14T03:46:52;15.04;74.65
77523;SHT31;66637;-29.628;-49.938;2023-05-14T03:49:24;15.08;74.42
77523;SHT31;66637;-29.628;-49.938;2023-05-14T03:51:55;15.07;74.39
77523;SHT31;66637;-29.628;-49.938;2023-05-14T03:54:28;15.03;74.60
77523;SHT31;66637;-29.628;-49.938;2023-05-14T03:57:00;15.00;74.35
77523;SHT31;66637;-29.628;-49.938;2023-05-14T03:59:31;15.00;74.46
77523;SHT31;66637;-29.628;-49.938;2023-05-14T04:02:01;14.93;74.65
77523;SHT31;66637;-29.628;-49.938;2023-05-14T04:04:32;14.87;74.61
77523;SHT31;66637;-29.628;-49.938;2023-05-14T04:07:04;14.86;74.56
77523;SHT31;66637;-29.628;-49.938;2023-05-14T04:09:35;14.83;74.80
77523;SHT31;66637;-29.628;-49.938;2023-05-14T04:12:05;14.80;74.88
77523;SHT31;66637;-29.628;-49.938;2023-05-14T04:14:37;14.83;74.60
77523;SHT31;66637;-29.628;-49.938;2023-05-14T04:17:08;14.83;74.32
77523;SHT31;66637;-29.628;-49.938;2023-05-14T04:19:38;14.86;74.14
77523;SHT31;66637;-29.628;-49.938;2023-05-14T04:22:09;14.83;73.98
77523;SHT31;66637;-29.628;-49.938;2023-05-14T04:24:40;14.80;73.82
77523;SHT31;66637;-29.628;-49.938;2023-05-14T04:27:10;14.79;73.65
77523;SHT31;66637;-29.628;-49.938;2023-05-14T04:29:42;14.77;73.54
77523;SHT31;66637;-29.628;-49.938;2023-05-14T04:32:12;14.76;73.52
77523;SHT31;66637;-29.628;-49.938;2023-05-14T04:34:44;14.73;73.70
77523;SHT31;66637;-29.628;-49.938;2023-05-14T04:37:16;14.72;73.52
77523;SHT31;66637;-29.628;-49.938;2023-05-14T04:39:47;14.69;73.60
77523;SHT31;66637;-29.628;-49.938;2023-05-14T04:42:18;14.66;73.37
77523;SHT31;66637;-29.628;-49.938;2023-05-14T04:44:49;14.66;73.34
77523;SHT31;66637;-29.628;-49.938;2023-05-14T04:47:20;14.70;73.10
77523;SHT31;66637;-29.628;-49.938;2023-05-14T04:49:51;14.64;72.89
77523;SHT31;66637;-29.628;-49.938;2023-05-14T04:52:21;14.66;72.90
77523;SHT31;66637;-29.628;-49.938;2023-05-14T04:54:51;14.66;72.99
77523;SHT31;66637;-29.628;-49.938;2023-05-14T04:57:21;14.69;72.61
77523;SHT31;66637;-29.628;-49.938;2023-05-14T04:59:51;14.70;72.51
77523;SHT31;66637;-29.628;-49.938;2023-05-14T05:02:21;14.69;72.42
77523;SHT31;66637;-29.628;-49.938;2023-05-14T05:04:52;14.69;72.18
77523;SHT31;66637;-29.628;-49.938;2023-05-14T05:07:22;14.66;72.28
77523;SHT31;66637;-29.628;-49.938;2023-05-14T05:09:52;14.66;72.03
77523;SHT31;66637;-29.628;-49.938;2023-05-14T05:12:22;14.66;72.06
77523;SHT31;66637;-29.628;-49.938;2023-05-14T05:14:55;14.64;71.95
77523;SHT31;66637;-29.628;-49.938;2023-05-14T05:17:28;14.67;71.94
77523;SHT31;66637;-29.628;-49.938;2023-05-14T05:19:58;14.60;71.64
77523;SHT31;66637;-29.628;-49.938;2023-05-14T05:22:29;14.56;71.94
77523;SHT31;66637;-29.628;-49.938;2023-05-14T05:24:59;14.59;71.93
77523;SHT31;66637;-29.628;-49.938;2023-05-14T05:27:30;14.63;71.81
77523;SHT31;66637;-29.628;-49.938;2023-05-14T05:30:01;14.57;71.67
77523;SHT31;66637;-29.628;-49.938;2023-05-14T05:32:33;14.60;71.67
77523;SHT31;66637;-29.628;-49.938;2023-05-14T05:35:04;14.55;71.64
77523;SHT31;66637;-29.628;-49.938;2023-05-14T05:37:36;14.52;71.66
77523;SHT31;66637;-29.628;-49.938;2023-05-14T05:40:08;14.47;71.73
77523;SHT31;66637;-29.628;-49.938;2023-05-14T05:42:41;14.50;71.84
77523;SHT31;66637;-29.628;-49.938;2023-05-14T05:45:11;14.52;71.69
77523;SHT31;66637;-29.628;-49.938;2023-05-14T05:47:41;14.56;71.55
77523;SHT31;66637;-29.628;-49.938;2023-05-14T05:50:12;14.53;71.45
77523;SHT31;66637;-29.628;-49.938;2023-05-14T05:52:47;14.53;71.64
77523;SHT31;66637;-29.628;-49.938;2023-05-14T05:55:17;14.55;71.68
77523;SHT31;66637;-29.628;-49.938;2023-05-14T05:57:49;14.50;71.94
77523;SHT31;66637;-29.628;-49.938;2023-05-14T06:00:21;14.52;72.26
77523;SHT31;66637;-29.628;-49.938;2023-05-14T06:02:53;14.57;72.30
77523;SHT31;66637;-29.628;-49.938;2023-05-14T06:05:25;14.57;72.38
77523;SHT31;66637;-29.628;-49.938;2023-05-14T06:07:56;14.60;72.26
77523;SHT31;66637;-29.628;-49.938;2023-05-14T06:10:28;14.62;72.68
77523;SHT31;66637;-29.628;-49.938;2023-05-14T06:12:58;14.67;72.59
77523;SHT31;66637;-29.628;-49.938;2023-05-14T06:15:29;14.70;72.72
77523;SHT31;66637;-29.628;-49.938;2023-05-14T06:18:00;14.69;72.57
77523;SHT31;66637;-29.628;-49.938;2023-05-14T06:20:31;14.69;72.76
77523;SHT31;66637;-29.628;-49.938;2023-05-14T06:23:02;14.60;72.86
77523;SHT31;66637;-29.628;-49.938;2023-05-14T06:25:35;14.56;72.50
77523;SHT31;66637;-29.628;-49.938;2023-05-14T06:28:06;14.52;72.98
77523;SHT31;66637;-29.628;-49.938;2023-05-14T06:30:38;14.52;72.71
77523;SHT31;66637;-29.628;-49.938;2023-05-14T06:33:10;14.47;72.36
77523;SHT31;66637;-29.628;-49.938;2023-05-14T06:35:41;14.47;72.27
77523;SHT31;66637;-29.628;-49.938;2023-05-14T06:38:12;14.43;72.17
77523;SHT31;66637;-29.628;-49.938;2023-05-14T06:40:43;14.43;72.11
77523;SHT31;66637;-29.628;-49.938;2023-05-14T06:43:15;14.40;71.86
77523;SHT31;66637;-29.628;-49.938;2023-05-14T06:45:50;14.34;71.84
77523;SHT31;66637;-29.628;-49.938;2023-05-14T06:48:21;14.26;72.28
77523;SHT31;66637;-29.628;-49.938;2023-05-14T06:50:52;14.19;72.88
77523;SHT31;66637;-29.628;-49.938;2023-05-14T06:53:23;14.13;73.87
77523;SHT31;66637;-29.628;-49.938;2023-05-14T06:55:54;14.01;72.55
77523;SHT31;66637;-29.628;-49.938;2023-05-14T06:58:26;13.94;72.87
77523;SHT31;66637;-29.628;-49.938;2023-05-14T07:00:57;13.97;73.82
77523;SHT31;66637;-29.628;-49.938;2023-05-14T07:03:28;13.97;73.58
77523;SHT31;66637;-29.628;-49.938;2023-05-14T07:05:59;13.89;72.85
77523;SHT31;66637;-29.628;-49.938;2023-05-14T07:08:30;13.91;73.59
77523;SHT31;66637;-29.628;-49.938;2023-05-14T07:11:01;13.97;73.24
77523;SHT31;66637;-29.628;-49.938;2023-05-14T07:13:31;13.98;73.15
77523;SHT31;66637;-29.628;-49.938;2023-05-14T07:16:03;14.04;72.97
77523;SHT31;66637;-29.628;-49.938;2023-05-14T07:18:34;14.04;72.53
77523;SHT31;66637;-29.628;-49.938;2023-05-14T07:21:05;14.19;72.44
77523;SHT31;66637;-29.628;-49.938;2023-05-14T07:23:37;14.22;72.16
77523;SHT31;66637;-29.628;-49.938;2023-05-14T07:26:07;14.30;71.33
77523;SHT31;66637;-29.628;-49.938;2023-05-14T07:28:38;14.37;71.06
77523;SHT31;66637;-29.628;-49.938;2023-05-14T07:31:09;14.40;70.88
77523;SHT31;66637;-29.628;-49.938;2023-05-14T07:33:40;14.39;70.77
77523;SHT31;66637;-29.628;-49.938;2023-05-14T07:36:35;14.46;70.50
77523;SHT31;66637;-29.628;-49.938;2023-05-14T07:39:28;14.49;69.82
77523;SHT31;66637;-29.628;-49.938;2023-05-14T07:42:01;14.56;69.56
77523;SHT31;66637;-29.628;-49.938;2023-05-14T07:44:31;14.55;69.49
77523;SHT31;66637;-29.628;-49.938;2023-05-14T07:47:01;14.57;69.18
77523;SHT31;66637;-29.628;-49.938;2023-05-14T07:49:33;14.63;68.84
77523;SHT31;66637;-29.628;-49.938;2023-05-14T07:52:04;14.72;68.25
77523;SHT31;66637;-29.628;-49.938;2023-05-14T07:54:34;14.80;67.74
77523;SHT31;66637;-29.628;-49.938;2023-05-14T07:57:06;14.93;67.26
77523;SHT31;66637;-29.628;-49.938;2023-05-14T07:59:37;14.98;67.03
77523;SHT31;66637;-29.628;-49.938;2023-05-14T08:02:08;15.07;66.93
77523;SHT31;66637;-29.628;-49.938;2023-05-14T08:04:41;15.12;66.29
77523;SHT31;66637;-29.628;-49.938;2023-05-14T08:07:12;15.17;66.34
77523;SHT31;66637;-29.628;-49.938;2023-05-14T08:09:42;15.23;66.24
77523;SHT31;66637;-29.628;-49.938;2023-05-14T08:12:13;15.18;66.48
77523;SHT31;66637;-29.628;-49.938;2023-05-14T08:14:44;15.18;66.56
77523;SHT31;66637;-29.628;-49.938;2023-05-14T08:17:15;15.11;66.67
77523;SHT31;66637;-29.628;-49.938;2023-05-14T08:19:45;15.07;66.84
77523;SHT31;66637;-29.628;-49.938;2023-05-14T08:22:15;15.08;66.93
77523;SHT31;66637;-29.628;-49.938;2023-05-14T08:24:47;15.03;67.08
77523;SHT31;66637;-29.628;-49.938;2023-05-14T08:27:18;15.07;67.08
77523;SHT31;66637;-29.628;-49.938;2023-05-14T08:29:48;15.01;67.13
77523;SHT31;66637;-29.628;-49.938;2023-05-14T08:32:19;15.10;66.65
77523;SHT31;66637;-29.628;-49.938;2023-05-14T08:34:51;15.23;66.05
77523;SHT31;66637;-29.628;-49.938;2023-05-14T08:37:21;15.24;65.72
77523;SHT31;66637;-29.628;-49.938;2023-05-14T08:39:52;15.25;66.06
77523;SHT31;66637;-29.628;-49.938;2023-05-14T08:42:24;15.17;66.36
77523;SHT31;66637;-29.628;-49.938;2023-05-14T08:45:02;15.12;66.27
77523;SHT31;66637;-29.628;-49.938;2023-05-14T08:47:35;15.10;66.45
77523;SHT31;66637;-29.628;-49.938;2023-05-14T08:50:08;15.10;66.48
77523;SHT31;66637;-29.628;-49.938;2023-05-14T08:52:40;15.04;66.48
77523;SHT31;66637;-29.628;-49.938;2023-05-14T08:55:12;15.00;66.66
77523;SHT31;66637;-29.628;-49.938;2023-05-14T08:57:42;15.00;66.65
77523;SHT31;66637;-29.628;-49.938;2023-05-14T09:00:14;15.07;66.79
77523;SHT31;66637;-29.628;-49.938;2023-05-14T09:02:45;15.08;66.90
77523;SHT31;66637;-29.628;-49.938;2023-05-14T09:05:18;15.11;66.83
77523;SHT31;66637;-29.628;-49.938;2023-05-14T09:07:49;15.08;67.22
77523;SHT31;66637;-29.628;-49.938;2023-05-14T09:10:21;15.17;66.63
77523;SHT31;66637;-29.628;-49.938;2023-05-14T09:12:53;15.21;66.46
77523;SHT31;66637;-29.628;-49.938;2023-05-14T09:15:26;15.18;66.61
77523;SHT31;66637;-29.628;-49.938;2023-05-14T09:17:57;15.20;66.85
77523;SHT31;66637;-29.628;-49.938;2023-05-14T09:20:29;15.14;66.64
77523;SHT31;66637;-29.628;-49.938;2023-05-14T09:23:00;15.14;66.76
77523;SHT31;66637;-29.628;-49.938;2023-05-14T09:25:32;15.12;66.93
77523;SHT31;66637;-29.628;-49.938;2023-05-14T09:28:08;15.08;67.06
77523;SHT31;66637;-29.628;-49.938;2023-05-14T09:30:38;15.03;67.36
77523;SHT31;66637;-29.628;-49.938;2023-05-14T09:33:08;15.10;67.08
77523;SHT31;66637;-29.628;-49.938;2023-05-14T09:35:38;15.04;66.94
77523;SHT31;66637;-29.628;-49.938;2023-05-14T09:38:10;15.05;67.04
77523;SHT31;66637;-29.628;-49.938;2023-05-14T09:40:40;15.04;66.82
77523;SHT31;66637;-29.628;-49.938;2023-05-14T09:43:11;14.94;67.07
77523;SHT31;66637;-29.628;-49.938;2023-05-14T09:45:43;14.97;67.20
77523;SHT31;66637;-29.628;-49.938;2023-05-14T09:48:15;14.95;67.30
77523;SHT31;66637;-29.628;-49.938;2023-05-14T09:50:46;14.91;67.05
77523;SHT31;66637;-29.628;-49.938;2023-05-14T09:53:16;14.97;67.10
77523;SHT31;66637;-29.628;-49.938;2023-05-14T09:55:47;14.95;67.06
77523;SHT31;66637;-29.628;-49.938;2023-05-14T09:58:17;14.93;66.95
77523;SHT31;66637;-29.628;-49.938;2023-05-14T10:00:48;14.90;66.92
77523;SHT31;66637;-29.628;-49.938;2023-05-14T10:03:19;14.91;67.01
77523;SHT31;66637;-29.628;-49.938;2023-05-14T10:05:52;14.93;66.85
77523;SHT31;66637;-29.628;-49.938;2023-05-14T10:08:32;14.98;66.67
77523;SHT31;66637;-29.628;-49.938;2023-05-14T10:11:10;15.03;66.54
77523;SHT31;66637;-29.628;-49.938;2023-05-14T10:13:48;15.05;66.32
77523;SHT31;66637;-29.628;-49.938;2023-05-14T10:16:28;15.11;66.05
77523;SHT31;66637;-29.628;-49.938;2023-05-14T10:19:04;15.18;65.91
77523;SHT31;66637;-29.628;-49.938;2023-05-14T10:21:38;15.18;65.88
77523;SHT31;66637;-29.628;-49.938;2023-05-14T10:24:10;15.27;65.76
77523;SHT31;66637;-29.628;-49.938;2023-05-14T10:26:42;15.39;65.21
77523;SHT31;66637;-29.628;-49.938;2023-05-14T10:29:14;15.49;64.96
77523;SHT31;66637;-29.628;-49.938;2023-05-14T10:31:52;16.78;61.71
77523;SHT31;66637;-29.628;-49.938;2023-05-14T10:34:31;18.76;55.38
77523;SHT31;66637;-29.628;-49.938;2023-05-14T10:37:05;17.52;57.99
77523;SHT31;66637;-29.628;-49.938;2023-05-14T10:39:58;16.75;60.58
77523;SHT31;66637;-29.628;-49.938;2023-05-14T10:42:37;17.25;59.71
77523;SHT31;66637;-29.628;-49.938;2023-05-14T10:45:15;18.06;56.34
77523;SHT31;66637;-29.628;-49.938;2023-05-14T10:47:47;18.03;56.94
77523;SHT31;66637;-29.628;-49.938;2023-05-14T10:50:19;20.90;49.98
77523;SHT31;66637;-29.628;-49.938;2023-05-14T10:52:52;21.14;48.73
77523;SHT31;66637;-29.628;-49.938;2023-05-14T10:55:24;19.18;54.00
77523;SHT31;66637;-29.628;-49.938;2023-05-14T10:57:58;18.91;54.64
77523;SHT31;66637;-29.628;-49.938;2023-05-14T11:00:33;18.73;55.52
77523;SHT31;66637;-29.628;-49.938;2023-05-14T11:03:06;18.30;56.87
77523;SHT31;66637;-29.628;-49.938;2023-05-14T11:05:40;18.76;56.51
77523;SHT31;66637;-29.628;-49.938;2023-05-14T11:08:13;19.02;55.76
77523;SHT31;66637;-29.628;-49.938;2023-05-14T11:10:43;20.11;52.96
77523;SHT31;66637;-29.628;-49.938;2023-05-14T11:13:18;20.89;50.58
77523;SHT31;66637;-29.628;-49.938;2023-05-14T11:15:49;20.52;51.52
77523;SHT31;66637;-29.628;-49.938;2023-05-14T11:18:27;20.41;52.39
77523;SHT31;66637;-29.628;-49.938;2023-05-14T11:20:59;19.73;54.39
77523;SHT31;66637;-29.628;-49.938;2023-05-14T11:23:30;19.45;55.04
77523;SHT31;66637;-29.628;-49.938;2023-05-14T11:26:01;19.47;55.24
77523;SHT31;66637;-29.628;-49.938;2023-05-14T11:28:32;19.50;55.22
77523;SHT31;66637;-29.628;-49.938;2023-05-14T11:31:04;19.42;54.60
77523;SHT31;66637;-29.628;-49.938;2023-05-14T11:33:34;19.75;54.34
77523;SHT31;66637;-29.628;-49.938;2023-05-14T11:36:05;19.94;53.56
77523;SHT31;66637;-29.628;-49.938;2023-05-14T11:38:45;20.11;53.98
77523;SHT31;66637;-29.628;-49.938;2023-05-14T11:41:19;20.18;53.67
77523;SHT31;66637;-29.628;-49.938;2023-05-14T11:43:52;20.38;52.16
77523;SHT31;66637;-29.628;-49.938;2023-05-14T11:46:23;20.59;53.05
77523;SHT31;66637;-29.628;-49.938;2023-05-14T11:48:56;20.82;52.15
77523;SHT31;66637;-29.628;-49.938;2023-05-14T11:51:26;20.99;51.91
77523;SHT31;66637;-29.628;-49.938;2023-05-14T11:53:58;21.19;51.73
77523;SHT31;66637;-29.628;-49.938;2023-05-14T11:56:29;21.37;50.53
77523;SHT31;66637;-29.628;-49.938;2023-05-14T11:58:59;21.41;51.00
77523;SHT31;66637;-29.628;-49.938;2023-05-14T12:01:38;21.70;50.37
77523;SHT31;66637;-29.628;-49.938;2023-05-14T12:04:09;21.70;49.03
77523;SHT31;66637;-29.628;-49.938;2023-05-14T12:06:40;21.62;49.78
77523;SHT31;66637;-29.628;-49.938;2023-05-14T12:09:11;21.54;48.45
77523;SHT31;66637;-29.628;-49.938;2023-05-14T12:11:46;21.55;49.39
77523;SHT31;66637;-29.628;-49.938;2023-05-14T12:14:23;21.88;49.31
77523;SHT31;66637;-29.628;-49.938;2023-05-14T12:16:54;22.13;48.89
77523;SHT31;66637;-29.628;-49.938;2023-05-14T12:19:25;22.26;47.60
77523;SHT31;66637;-29.628;-49.938;2023-05-14T12:22:00;22.57;49.17
77523;SHT31;66637;-29.628;-49.938;2023-05-14T12:24:30;22.90;48.25
77523;SHT31;66637;-29.628;-49.938;2023-05-14T12:27:03;22.84;46.59
77523;SHT31;66637;-29.628;-49.938;2023-05-14T12:29:37;23.02;46.08
77523;SHT31;66637;-29.628;-49.938;2023-05-14T12:32:09;23.18;46.66
77523;SHT31;66637;-29.628;-49.938;2023-05-14T12:34:40;23.28;46.37
77523;SHT31;66637;-29.628;-49.938;2023-05-14T12:37:11;23.40;45.88
77523;SHT31;66637;-29.628;-49.938;2023-05-14T12:39:42;23.51;47.80
77523;SHT31;66637;-29.628;-49.938;2023-05-14T12:42:14;23.61;46.49
77523;SHT31;66637;-29.628;-49.938;2023-05-14T12:44:46;23.72;46.35
77523;SHT31;66637;-29.628;-49.938;2023-05-14T12:47:17;24.01;44.82
77523;SHT31;66637;-29.628;-49.938;2023-05-14T12:49:49;23.95;44.05
77523;SHT31;66637;-29.628;-49.938;2023-05-14T12:52:20;24.04;45.55
77523;SHT31;66637;-29.628;-49.938;2023-05-14T12:55:07;24.26;45.15
77523;SHT31;66637;-29.628;-49.938;2023-05-14T12:57:39;24.33;44.61
77523;SHT31;66637;-29.628;-49.938;2023-05-14T13:00:10;24.47;44.14
77523;SHT31;66637;-29.628;-49.938;2023-05-14T13:02:42;24.53;44.95
77523;SHT31;66637;-29.628;-49.938;2023-05-14T13:05:12;24.71;45.77
77523;SHT31;66637;-29.628;-49.938;2023-05-14T13:07:43;24.86;43.88
77523;SHT31;66637;-29.628;-49.938;2023-05-14T13:10:13;24.87;44.37
77523;SHT31;66637;-29.628;-49.938;2023-05-14T13:12:46;24.94;43.73
77523;SHT31;66637;-29.628;-49.938;2023-05-14T13:15:18;25.11;42.17
77523;SHT31;66637;-29.628;-49.938;2023-05-14T13:17:49;25.14;41.88
77523;SHT31;66637;-29.628;-49.938;2023-05-14T13:20:20;25.27;43.17
77523;SHT31;66637;-29.628;-49.938;2023-05-14T13:22:53;25.24;41.49
77523;SHT31;66637;-29.628;-49.938;2023-05-14T13:25:25;25.35;42.25
77523;SHT31;66637;-29.628;-49.938;2023-05-14T13:27:57;25.65;39.68
77523;SHT31;66637;-29.628;-49.938;2023-05-14T13:30:28;25.75;41.21
77523;SHT31;66637;-29.628;-49.938;2023-05-14T13:32:59;25.69;40.86
77523;SHT31;66637;-29.628;-49.938;2023-05-14T13:35:33;25.72;42.03
77523;SHT31;66637;-29.628;-49.938;2023-05-14T13:38:04;25.79;42.61
77523;SHT31;66637;-29.628;-49.938;2023-05-14T13:40:34;25.96;43.95
77523;SHT31;66637;-29.628;-49.938;2023-05-14T13:43:05;25.99;42.65
77523;SHT31;66637;-29.628;-49.938;2023-05-14T13:45:37;26.07;43.04
77523;SHT31;66637;-29.628;-49.938;2023-05-14T13:48:09;26.16;42.07
77523;SHT31;66637;-29.628;-49.938;2023-05-14T13:50:41;26.14;41.20
77523;SHT31;66637;-29.628;-49.938;2023-05-14T13:53:13;26.32;41.88
77523;SHT31;66637;-29.628;-49.938;2023-05-14T13:55:47;26.17;41.81
77523;SHT31;66637;-29.628;-49.938;2023-05-14T13:58:18;26.03;40.73
77523;SHT31;66637;-29.628;-49.938;2023-05-14T14:00:50;26.14;42.61
77523;SHT31;66637;-29.628;-49.938;2023-05-14T14:03:21;26.09;40.69
77523;SHT31;66637;-29.628;-49.938;2023-05-14T14:05:52;26.19;41.47
77523;SHT31;66637;-29.628;-49.938;2023-05-14T14:08:22;26.34;40.47
77523;SHT31;66637;-29.628;-49.938;2023-05-14T14:10:53;26.10;40.05
77523;SHT31;66637;-29.628;-49.938;2023-05-14T14:13:24;26.10;41.18
77523;SHT31;66637;-29.628;-49.938;2023-05-14T14:15:55;26.06;39.75
77523;SHT31;66637;-29.628;-49.938;2023-05-14T14:18:27;26.02;41.25
77523;SHT31;66637;-29.628;-49.938;2023-05-14T14:20:59;26.00;40.23
77523;SHT31;66637;-29.628;-49.938;2023-05-14T14:23:30;25.95;39.80
77523;SHT31;66637;-29.628;-49.938;2023-05-14T14:26:01;26.12;41.85
77523;SHT31;66637;-29.628;-49.938;2023-05-14T14:28:32;26.30;40.93
77523;SHT31;66637;-29.628;-49.938;2023-05-14T14:31:03;26.02;40.03
77523;SHT31;66637;-29.628;-49.938;2023-05-14T14:33:34;25.89;41.06
77523;SHT31;66637;-29.628;-49.938;2023-05-14T14:36:05;26.12;41.43
77523;SHT31;66637;-29.628;-49.938;2023-05-14T14:38:36;26.40;41.33
77523;SHT31;66637;-29.628;-49.938;2023-05-14T14:41:12;26.48;41.14
77523;SHT31;66637;-29.628;-49.938;2023-05-14T14:43:43;26.19;40.09
77523;SHT31;66637;-29.628;-49.938;2023-05-14T14:46:13;26.14;40.52
77523;SHT31;66637;-29.628;-49.938;2023-05-14T14:48:44;26.22;39.83
77523;SHT31;66637;-29.628;-49.938;2023-05-14T14:51:15;26.10;40.44
77523;SHT31;66637;-29.628;-49.938;2023-05-14T14:53:46;26.05;41.20
77523;SHT31;66637;-29.628;-49.938;2023-05-14T14:56:17;26.13;39.75
77523;SHT31;66637;-29.628;-49.938;2023-05-14T14:58:48;26.13;40.31
77523;SHT31;66637;-29.628;-49.938;2023-05-14T15:01:18;26.19;41.27
77523;SHT31;66637;-29.628;-49.938;2023-05-14T15:03:50;26.34;41.59
77523;SHT31;66637;-29.628;-49.938;2023-05-14T15:06:21;26.39;40.94
77523;SHT31;66637;-29.628;-49.938;2023-05-14T15:08:52;26.32;40.19
77523;SHT31;66637;-29.628;-49.938;2023-05-14T15:11:23;26.24;40.34
77523;SHT31;66637;-29.628;-49.938;2023-05-14T15:13:54;26.22;41.33
77523;SHT31;66637;-29.628;-49.938;2023-05-14T15:16:25;26.09;40.58
77523;SHT31;66637;-29.628;-49.938;2023-05-14T15:18:57;26.30;42.75
77523;SHT31;66637;-29.628;-49.938;2023-05-14T15:21:29;26.44;40.84
77523;SHT31;66637;-29.628;-49.938;2023-05-14T15:24:04;26.23;40.95
77523;SHT31;66637;-29.628;-49.938;2023-05-14T15:26:36;26.13;40.92
77523;SHT31;66637;-29.628;-49.938;2023-05-14T15:29:08;26.12;41.28